sensor_id;sensor_type;location;lat;lon;timestamp;pressure;altitude;pressure_sealevel;temperature;humidity
48204;BME280;33994;50.998;5.864;2023-05-23T00:00:46;101320.28;;;15.26;94.94
48204;BME280;33994;50.998;5.864;2023-05-23T00:03:50;101313.34;;;15.22;95.12
48204;BME280;33994;50.998;5.864;2023-05-23T00:06:54;101317.78;;;15.20;95.17
48204;BME280;33994;50.998;5.864;2023-05-23T00:09:58;101313.50;;;15.16;95.21
48204;BME280;33994;50.998;5.864;2023-05-23T00:13:01;101319.75;;;15.12;95.24
48204;BME280;33994;50.998;5.864;2023-05-23T00:16:05;101316.38;;;15.07;95.25
48204;BME280;33994;50.998;5.864;2023-05-23T00:19:08;101310.28;;;15.05;95.29
48204;BME280;33994;50.998;5.864;2023-05-23T00:22:12;101318.31;;;15.00;95.12
48204;BME280;33994;50.998;5.864;2023-05-23T00:25:15;101310.53;;;14.96;95.00
48204;BME280;33994;50.998;5.864;2023-05-23T00:28:19;101322.13;;;14.89;94.94
48204;BME280;33994;50.998;5.864;2023-05-23T00:31:23;101324.88;;;14.82;95.12
48204;BME280;33994;50.998;5.864;2023-05-23T00:34:26;101328.56;;;14.77;95.14
48204;BME280;33994;50.998;5.864;2023-05-23T00:37:30;101327.81;;;14.70;95.31
48204;BME280;33994;50.998;5.864;2023-05-23T00:40:34;101324.44;;;14.65;95.68
48204;BME280;33994;50.998;5.864;2023-05-23T00:43:37;101335.78;;;14.67;95.84
48204;BME280;33994;50.998;5.864;2023-05-23T00:46:42;101332.19;;;14.71;95.68
48204;BME280;33994;50.998;5.864;2023-05-23T00:49:47;101348.81;;;14.73;95.55
48204;BME280;33994;50.998;5.864;2023-05-23T00:52:51;101346.25;;;14.70;95.27
48204;BME280;33994;50.998;5.864;2023-05-23T00:55:54;101349.97;;;14.60;95.34
48204;BME280;33994;50.998;5.864;2023-05-23T00:58:58;101360.59;;;14.57;95.66
48204;BME280;33994;50.998;5.864;2023-05-23T01:02:01;101363.41;;;14.49;95.95
48204;BME280;33994;50.998;5.864;2023-05-23T01:05:05;101358.19;;;14.46;96.30
48204;BME280;33994;50.998;5.864;2023-05-23T01:08:10;101357.34;;;14.44;96.44
48204;BME280;33994;50.998;5.864;2023-05-23T01:11:19;101367.00;;;14.44;96.57
48204;BME280;33994;50.998;5.864;2023-05-23T01:14:29;101367.13;;;14.39;96.71
48204;BME280;33994;50.998;5.864;2023-05-23T01:17:43;101361.13;;;14.32;96.89
48204;BME280;33994;50.998;5.864;2023-05-23T01:20:53;101361.19;;;14.29;96.93
48204;BME280;33994;50.998;5.864;2023-05-23T01:24:21;101372.66;;;14.27;96.89
48204;BME280;33994;50.998;5.864;2023-05-23T01:27:40;101377.13;;;14.23;96.77
48204;BME280;33994;50.998;5.864;2023-05-23T01:30:44;101382.44;;;14.20;96.70
48204;BME280;33994;50.998;5.864;2023-05-23T01:33:50;101392.09;;;14.20;96.56
48204;BME280;33994;50.998;5.864;2023-05-23T01:36:54;101391.25;;;14.19;96.53
48204;BME280;33994;50.998;5.864;2023-05-23T01:39:58;101388.59;;;14.19;96.40
48204;BME280;33994;50.998;5.864;2023-05-23T01:43:02;101390.38;;;14.17;95.92
48204;BME280;33994;50.998;5.864;2023-05-23T01:46:06;101388.72;;;14.13;95.39
48204;BME280;33994;50.998;5.864;2023-05-23T01:49:12;101396.66;;;14.11;95.06
48204;BME280;33994;50.998;5.864;2023-05-23T01:52:16;101398.44;;;14.11;94.63
48204;BME280;33994;50.998;5.864;2023-05-23T01:55:20;101392.28;;;14.10;94.61
48204;BME280;33994;50.998;5.864;2023-05-23T01:58:25;101395.81;;;14.09;94.19
48204;BME280;33994;50.998;5.864;2023-05-23T02:01:29;101393.22;;;14.08;94.34
48204;BME280;33994;50.998;5.864;2023-05-23T02:04:32;101382.81;;;14.02;94.75
48204;BME280;33994;50.998;5.864;2023-05-23T02:07:35;101386.34;;;14.01;95.08
48204;BME280;33994;50.998;5.864;2023-05-23T02:10:39;101390.75;;;13.99;95.35
48204;BME280;33994;50.998;5.864;2023-05-23T02:13:43;101378.56;;;13.96;95.59
48204;BME280;33994;50.998;5.864;2023-05-23T02:16:46;101384.69;;;13.95;95.80
48204;BME280;33994;50.998;5.864;2023-05-23T02:19:49;101381.19;;;13.95;95.86
48204;BME280;33994;50.998;5.864;2023-05-23T02:22:53;101380.34;;;13.94;95.95
48204;BME280;33994;50.998;5.864;2023-05-23T02:25:56;101388.28;;;13.93;95.89
48204;BME280;33994;50.998;5.864;2023-05-23T02:29:01;101390.91;;;13.93;95.94
48204;BME280;33994;50.998;5.864;2023-05-23T02:32:04;101393.53;;;13.93;95.86
48204;BME280;33994;50.998;5.864;2023-05-23T02:35:08;101391.75;;;13.93;96.03
48204;BME280;33994;50.998;5.864;2023-05-23T02:38:11;101399.66;;;13.93;95.88
48204;BME280;33994;50.998;5.864;2023-05-23T02:41:14;101396.16;;;13.93;95.79
48204;BME280;33994;50.998;5.864;2023-05-23T02:44:19;101399.59;;;13.95;95.60
48204;BME280;33994;50.998;5.864;2023-05-23T02:47:22;101397.84;;;13.95;95.26
48204;BME280;33994;50.998;5.864;2023-05-23T02:50:25;101398.69;;;13.97;95.13
48204;BME280;33994;50.998;5.864;2023-05-23T02:53:28;101403.91;;;13.99;94.81
48204;BME280;33994;50.998;5.864;2023-05-23T02:56:31;101407.44;;;13.98;94.47
48204;BME280;33994;50.998;5.864;2023-05-23T02:59:36;101413.63;;;13.95;94.33
48204;BME280;33994;50.998;5.864;2023-05-23T03:02:39;101407.50;;;13.95;94.27
48204;BME280;33994;50.998;5.864;2023-05-23T03:05:43;101417.16;;;13.94;94.05
48204;BME280;33994;50.998;5.864;2023-05-23T03:08:46;101417.16;;;13.94;93.69
48204;BME280;33994;50.998;5.864;2023-05-23T03:11:49;101419.84;;;13.91;93.42
48204;BME280;33994;50.998;5.864;2023-05-23T03:14:54;101423.41;;;13.89;93.13
48204;BME280;33994;50.998;5.864;2023-05-23T03:17:57;101424.31;;;13.86;93.10
48204;BME280;33994;50.998;5.864;2023-05-23T03:21:00;101419.97;;;13.83;92.94
48204;BME280;33994;50.998;5.864;2023-05-23T03:24:04;101430.50;;;13.83;92.84
48204;BME280;33994;50.998;5.864;2023-05-23T03:27:07;101424.38;;;13.83;92.65
48204;BME280;33994;50.998;5.864;2023-05-23T03:30:12;101430.56;;;13.80;92.62
48204;BME280;33994;50.998;5.864;2023-05-23T03:33:15;101433.25;;;13.77;92.59
48204;BME280;33994;50.998;5.864;2023-05-23T03:36:18;101434.13;;;13.76;92.74
48204;BME280;33994;50.998;5.864;2023-05-23T03:39:22;101438.53;;;13.77;92.76
48204;BME280;33994;50.998;5.864;2023-05-23T03:42:26;101450.81;;;13.77;92.80
48204;BME280;33994;50.998;5.864;2023-05-23T03:45:32;101446.41;;;13.76;92.63
48204;BME280;33994;50.998;5.864;2023-05-23T03:48:35;101456.13;;;13.74;92.63
48204;BME280;33994;50.998;5.864;2023-05-23T03:51:38;101453.53;;;13.71;92.74
48204;BME280;33994;50.998;5.864;2023-05-23T03:54:42;101461.38;;;13.72;92.84
48204;BME280;33994;50.998;5.864;2023-05-23T03:57:47;101458.81;;;13.69;92.74
48204;BME280;33994;50.998;5.864;2023-05-23T04:00:52;101466.72;;;13.69;92.69
48204;BME280;33994;50.998;5.864;2023-05-23T04:03:55;101463.22;;;13.67;92.75
48204;BME280;33994;50.998;5.864;2023-05-23T04:06:58;101470.25;;;13.65;92.79
48204;BME280;33994;50.998;5.864;2023-05-23T04:10:01;101467.63;;;13.65;92.95
48204;BME280;33994;50.998;5.864;2023-05-23T04:13:05;101476.41;;;13.64;93.02
48204;BME280;33994;50.998;5.864;2023-05-23T04:16:09;101473.81;;;13.62;93.03
48204;BME280;33994;50.998;5.864;2023-05-23T04:19:13;101476.47;;;13.61;93.09
48204;BME280;33994;50.998;5.864;2023-05-23T04:22:16;101483.47;;;13.62;93.25
48204;BME280;33994;50.998;5.864;2023-05-23T04:25:19;101478.34;;;13.54;93.41
48204;BME280;33994;50.998;5.864;2023-05-23T04:28:23;101480.13;;;13.52;93.67
48204;BME280;33994;50.998;5.864;2023-05-23T04:31:27;101478.31;;;13.56;93.83
48204;BME280;33994;50.998;5.864;2023-05-23T04:34:30;101475.69;;;13.56;93.62
48204;BME280;33994;50.998;5.864;2023-05-23T04:37:33;101480.13;;;13.52;93.75
48204;BME280;33994;50.998;5.864;2023-05-23T04:40:37;101481.00;;;13.53;93.84
48204;BME280;33994;50.998;5.864;2023-05-23T04:43:40;101480.16;;;13.51;93.87
48204;BME280;33994;50.998;5.864;2023-05-23T04:46:44;101485.38;;;13.52;93.98
48204;BME280;33994;50.998;5.864;2023-05-23T04:49:48;101488.00;;;13.52;93.90
48204;BME280;33994;50.998;5.864;2023-05-23T04:52:51;101484.47;;;13.53;94.03
48204;BME280;33994;50.998;5.864;2023-05-23T04:55:54;101485.38;;;13.54;93.85
48204;BME280;33994;50.998;5.864;2023-05-23T04:58:57;101494.13;;;13.53;94.01
48204;BME280;33994;50.998;5.864;2023-05-23T05:02:02;101488.06;;;13.51;94.17
48204;BME280;33994;50.998;5.864;2023-05-23T05:05:06;101485.44;;;13.48;94.20
48204;BME280;33994;50.998;5.864;2023-05-23T05:08:09;101491.59;;;13.45;94.20
48204;BME280;33994;50.998;5.864;2023-05-23T05:11:13;101497.78;;;13.43;94.44
48204;BME280;33994;50.998;5.864;2023-05-23T05:14:16;101484.34;;;13.61;94.70
48204;BME280;33994;50.998;5.864;2023-05-23T05:17:21;101478.91;;;13.73;93.50
48204;BME280;33994;50.998;5.864;2023-05-23T05:20:23;101487.75;;;13.68;93.08
48204;BME280;33994;50.998;5.864;2023-05-23T05:23:27;101499.25;;;13.60;93.40
48204;BME280;33994;50.998;5.864;2023-05-23T05:26:30;101494.03;;;13.57;93.34
48204;BME280;33994;50.998;5.864;2023-05-23T05:29:34;101502.84;;;13.56;93.32
48204;BME280;33994;50.998;5.864;2023-05-23T05:32:39;101506.31;;;13.57;93.16
48204;BME280;33994;50.998;5.864;2023-05-23T05:35:42;101502.81;;;13.58;92.93
48204;BME280;33994;50.998;5.864;2023-05-23T05:38:45;101508.91;;;13.60;92.68
48204;BME280;33994;50.998;5.864;2023-05-23T05:41:48;101511.53;;;13.60;92.47
48204;BME280;33994;50.998;5.864;2023-05-23T05:44:51;101511.56;;;13.57;92.59
48204;BME280;33994;50.998;5.864;2023-05-23T05:47:56;101512.47;;;13.56;92.46
48204;BME280;33994;50.998;5.864;2023-05-23T05:50:59;101518.66;;;13.53;92.39
48204;BME280;33994;50.998;5.864;2023-05-23T05:54:02;101518.63;;;13.55;92.50
48204;BME280;33994;50.998;5.864;2023-05-23T05:57:06;101518.56;;;13.59;92.52
48204;BME280;33994;50.998;5.864;2023-05-23T06:00:10;101522.88;;;13.63;92.28
48204;BME280;33994;50.998;5.864;2023-05-23T06:03:15;101522.91;;;13.62;92.30
48204;BME280;33994;50.998;5.864;2023-05-23T06:06:18;101527.31;;;13.60;92.44
48204;BME280;33994;50.998;5.864;2023-05-23T06:09:22;101523.91;;;13.55;92.87
48204;BME280;33994;50.998;5.864;2023-05-23T06:12:25;101528.25;;;13.56;93.38
48204;BME280;33994;50.998;5.864;2023-05-23T06:15:28;101538.75;;;13.56;93.36
48204;BME280;33994;50.998;5.864;2023-05-23T06:18:33;101535.28;;;13.55;93.71
48204;BME280;33994;50.998;5.864;2023-05-23T06:21:36;101537.94;;;13.54;93.96
48204;BME280;33994;50.998;5.864;2023-05-23T06:24:39;101538.78;;;13.54;94.07
48204;BME280;33994;50.998;5.864;2023-05-23T06:27:43;101544.09;;;13.50;94.27
48204;BME280;33994;50.998;5.864;2023-05-23T06:30:46;101540.63;;;13.48;94.75
48204;BME280;33994;50.998;5.864;2023-05-23T06:33:50;101546.78;;;13.45;94.80
48204;BME280;33994;50.998;5.864;2023-05-23T06:36:53;101545.09;;;13.43;94.76
48204;BME280;33994;50.998;5.864;2023-05-23T06:39:56;101538.06;;;13.43;94.77
48204;BME280;33994;50.998;5.864;2023-05-23T06:43:00;101547.69;;;13.44;94.79
48204;BME280;33994;50.998;5.864;2023-05-23T06:46:03;101545.09;;;13.43;94.84
48204;BME280;33994;50.998;5.864;2023-05-23T06:49:07;101543.31;;;13.42;95.26
48204;BME280;33994;50.998;5.864;2023-05-23T06:52:11;101548.53;;;13.45;95.31
48204;BME280;33994;50.998;5.864;2023-05-23T06:55:14;101550.25;;;13.47;95.30
48204;BME280;33994;50.998;5.864;2023-05-23T06:58:17;101552.88;;;13.50;95.04
48204;BME280;33994;50.998;5.864;2023-05-23T07:01:21;101555.47;;;13.52;95.00
48204;BME280;33994;50.998;5.864;2023-05-23T07:04:25;101565.09;;;13.53;94.73
48204;BME280;33994;50.998;5.864;2023-05-23T07:07:29;101565.06;;;13.54;94.49
48204;BME280;33994;50.998;5.864;2023-05-23T07:10:32;101567.66;;;13.56;94.25
48204;BME280;33994;50.998;5.864;2023-05-23T07:13:35;101565.00;;;13.59;94.05
48204;BME280;33994;50.998;5.864;2023-05-23T07:16:38;101567.59;;;13.62;93.76
48204;BME280;33994;50.998;5.864;2023-05-23T07:19:45;101580.72;;;13.62;93.23
48204;BME280;33994;50.998;5.864;2023-05-23T07:22:48;101579.91;;;13.57;93.16
48204;BME280;33994;50.998;5.864;2023-05-23T07:25:51;101581.72;;;13.55;93.47
48204;BME280;33994;50.998;5.864;2023-05-23T07:28:54;101582.56;;;13.55;93.56
48204;BME280;33994;50.998;5.864;2023-05-23T07:31:57;101595.75;;;13.54;93.60
48204;BME280;33994;50.998;5.864;2023-05-23T07:35:02;101591.47;;;13.44;93.79
48204;BME280;33994;50.998;5.864;2023-05-23T07:38:05;101598.53;;;13.40;94.10
48204;BME280;33994;50.998;5.864;2023-05-23T07:41:08;101603.03;;;13.30;94.34
48204;BME280;33994;50.998;5.864;2023-05-23T07:44:12;101605.72;;;13.26;95.15
48204;BME280;33994;50.998;5.864;2023-05-23T07:47:15;101604.00;;;13.25;95.62
48204;BME280;33994;50.998;5.864;2023-05-23T07:50:19;101608.47;;;13.18;95.61
48204;BME280;33994;50.998;5.864;2023-05-23T07:53:22;101617.28;;;13.14;95.70
48204;BME280;33994;50.998;5.864;2023-05-23T07:56:26;101623.38;;;13.14;95.49
48204;BME280;33994;50.998;5.864;2023-05-23T07:59:29;101619.06;;;13.12;95.38
48204;BME280;33994;50.998;5.864;2023-05-23T08:02:32;101612.16;;;13.05;95.14
48204;BME280;33994;50.998;5.864;2023-05-23T08:05:37;101616.56;;;13.00;95.38
48204;BME280;33994;50.998;5.864;2023-05-23T08:08:40;101625.38;;;12.97;95.27
48204;BME280;33994;50.998;5.864;2023-05-23T08:11:43;101614.03;;;12.94;94.44
48204;BME280;33994;50.998;5.864;2023-05-23T08:14:46;101622.78;;;12.93;93.97
48204;BME280;33994;50.998;5.864;2023-05-23T08:17:50;101631.56;;;12.92;93.58
48204;BME280;33994;50.998;5.864;2023-05-23T08:20:55;101632.44;;;12.90;93.30
48204;BME280;33994;50.998;5.864;2023-05-23T08:23:58;101628.88;;;12.96;92.82
48204;BME280;33994;50.998;5.864;2023-05-23T08:27:01;101631.41;;;13.04;92.24
48204;BME280;33994;50.998;5.864;2023-05-23T08:30:06;101636.59;;;13.10;91.44
48204;BME280;33994;50.998;5.864;2023-05-23T08:33:09;101636.53;;;13.16;90.59
48204;BME280;33994;50.998;5.864;2023-05-23T08:36:14;101643.44;;;13.23;90.15
48204;BME280;33994;50.998;5.864;2023-05-23T08:39:18;101631.94;;;13.30;89.36
48204;BME280;33994;50.998;5.864;2023-05-23T08:42:21;101647.69;;;13.30;88.26
48204;BME280;33994;50.998;5.864;2023-05-23T08:45:24;101650.38;;;13.27;88.11
48204;BME280;33994;50.998;5.864;2023-05-23T08:48:28;101648.75;;;13.17;87.70
48204;BME280;33994;50.998;5.864;2023-05-23T08:51:34;101661.16;;;13.06;87.61
48204;BME280;33994;50.998;5.864;2023-05-23T08:54:40;101666.50;;;12.98;87.24
48204;BME280;33994;50.998;5.864;2023-05-23T08:57:45;101658.66;;;12.95;86.91
48204;BME280;33994;50.998;5.864;2023-05-23T09:00:48;101662.16;;;12.94;86.40
48204;BME280;33994;50.998;5.864;2023-05-23T09:03:53;101672.75;;;12.86;86.26
48204;BME280;33994;50.998;5.864;2023-05-23T09:06:59;101678.84;;;12.88;86.14
48204;BME280;33994;50.998;5.864;2023-05-23T09:10:04;101688.47;;;12.88;84.90
48204;BME280;33994;50.998;5.864;2023-05-23T09:13:08;101683.28;;;12.83;84.21
48204;BME280;33994;50.998;5.864;2023-05-23T09:16:11;101685.88;;;12.86;83.59
48204;BME280;33994;50.998;5.864;2023-05-23T09:19:14;101688.44;;;12.91;82.72
48204;BME280;33994;50.998;5.864;2023-05-23T09:22:22;101681.44;;;12.93;81.47
48204;BME280;33994;50.998;5.864;2023-05-23T09:25:25;101684.84;;;13.00;80.51
48204;BME280;33994;50.998;5.864;2023-05-23T09:28:28;101689.09;;;13.13;80.77
48204;BME280;33994;50.998;5.864;2023-05-23T09:31:32;101690.72;;;13.23;79.97
48204;BME280;33994;50.998;5.864;2023-05-23T09:34:35;101693.28;;;13.26;79.07
48204;BME280;33994;50.998;5.864;2023-05-23T09:37:41;101687.00;;;13.39;78.30
48204;BME280;33994;50.998;5.864;2023-05-23T09:40:45;101689.47;;;13.53;77.19
48204;BME280;33994;50.998;5.864;2023-05-23T09:43:51;101674.53;;;13.57;76.18
48204;BME280;33994;50.998;5.864;2023-05-23T09:46:54;101684.16;;;13.56;75.69
48204;BME280;33994;50.998;5.864;2023-05-23T09:49:58;101692.88;;;13.61;75.39
48204;BME280;33994;50.998;5.864;2023-05-23T09:53:02;101683.06;;;13.73;75.25
48204;BME280;33994;50.998;5.864;2023-05-23T09:56:06;101675.84;;;13.87;73.84
48204;BME280;33994;50.998;5.864;2023-05-23T09:59:12;101684.38;;;14.03;73.26
48204;BME280;33994;50.998;5.864;2023-05-23T10:02:29;101679.84;;;14.13;71.39
48204;BME280;33994;50.998;5.864;2023-05-23T10:05:43;101683.16;;;14.24;71.06
48204;BME280;33994;50.998;5.864;2023-05-23T10:08:51;101687.53;;;14.26;70.42
48204;BME280;33994;50.998;5.864;2023-05-23T10:15:45;101690.31;;;14.16;70.79
48204;BME280;33994;50.998;5.864;2023-05-23T10:18:54;101696.50;;;14.13;70.23
48204;BME280;33994;50.998;5.864;2023-05-23T10:21:59;101693.03;;;14.11;71.07
48204;BME280;33994;50.998;5.864;2023-05-23T10:25:05;101694.75;;;14.12;71.11
48204;BME280;33994;50.998;5.864;2023-05-23T10:28:08;101689.44;;;14.15;70.89
48204;BME280;33994;50.998;5.864;2023-05-23T10:31:12;101699.03;;;14.19;70.74
48204;BME280;33994;50.998;5.864;2023-05-23T10:34:22;101703.44;;;14.17;69.87
48204;BME280;33994;50.998;5.864;2023-05-23T10:37:32;101699.97;;;14.14;70.08
48204;BME280;33994;50.998;5.864;2023-05-23T10:40:47;101704.34;;;14.16;69.97
48204;BME280;33994;50.998;5.864;2023-05-23T10:43:58;101704.28;;;14.19;69.93
48204;BME280;33994;50.998;5.864;2023-05-23T10:47:04;101714.75;;;14.22;70.42
48204;BME280;33994;50.998;5.864;2023-05-23T10:50:11;101708.69;;;14.19;70.05
48204;BME280;33994;50.998;5.864;2023-05-23T10:53:15;101707.00;;;14.13;70.63
48204;BME280;33994;50.998;5.864;2023-05-23T10:56:21;101707.00;;;14.13;70.65
48204;BME280;33994;50.998;5.864;2023-05-23T10:59:26;101694.59;;;14.21;70.53
48204;BME280;33994;50.998;5.864;2023-05-23T11:02:30;101693.66;;;14.25;70.48
48204;BME280;33994;50.998;5.864;2023-05-23T11:05:33;101692.69;;;14.29;70.17
48204;BME280;33994;50.998;5.864;2023-05-23T11:08:37;101698.69;;;14.39;70.18
48204;BME280;33994;50.998;5.864;2023-05-23T11:11:58;101701.16;;;14.48;68.39
48204;BME280;33994;50.998;5.864;2023-05-23T11:15:18;101700.28;;;14.49;68.10
48204;BME280;33994;50.998;5.864;2023-05-23T11:18:23;101688.88;;;14.49;68.45
48204;BME280;33994;50.998;5.864;2023-05-23T11:21:29;101701.06;;;14.53;68.69
48204;BME280;33994;50.998;5.864;2023-05-23T11:24:47;101710.78;;;14.51;68.19
48204;BME280;33994;50.998;5.864;2023-05-23T11:27:53;101711.78;;;14.44;68.36
48204;BME280;33994;50.998;5.864;2023-05-23T11:30:56;101710.91;;;14.43;67.99
48204;BME280;33994;50.998;5.864;2023-05-23T11:33:59;101713.44;;;14.48;67.83
48204;BME280;33994;50.998;5.864;2023-05-23T11:37:04;101710.81;;;14.49;67.50
48204;BME280;33994;50.998;5.864;2023-05-23T11:40:27;101694.84;;;14.58;66.70
48204;BME280;33994;50.998;5.864;2023-05-23T11:43:32;101706.13;;;14.68;67.32
48204;BME280;33994;50.998;5.864;2023-05-23T11:46:36;101709.59;;;14.70;66.91
48204;BME280;33994;50.998;5.864;2023-05-23T11:49:39;101713.13;;;14.69;67.01
48204;BME280;33994;50.998;5.864;2023-05-23T11:52:42;101716.53;;;14.74;66.86
48204;BME280;33994;50.998;5.864;2023-05-23T11:55:49;101712.84;;;14.83;66.05
48204;BME280;33994;50.998;5.864;2023-05-23T11:58:55;101716.25;;;14.90;64.88
48204;BME280;33994;50.998;5.864;2023-05-23T12:02:01;101712.59;;;14.97;64.14
48204;BME280;33994;50.998;5.864;2023-05-23T12:05:08;101715.25;;;14.97;62.64
48204;BME280;33994;50.998;5.864;2023-05-23T12:08:11;101723.91;;;15.03;62.73
48204;BME280;33994;50.998;5.864;2023-05-23T12:11:14;101724.81;;;15.01;61.36
48204;BME280;33994;50.998;5.864;2023-05-23T12:14:20;101730.22;;;14.93;60.90
48204;BME280;33994;50.998;5.864;2023-05-23T12:17:23;101728.47;;;14.94;61.20
48204;BME280;33994;50.998;5.864;2023-05-23T12:20:27;101729.41;;;14.91;61.09
48204;BME280;33994;50.998;5.864;2023-05-23T12:23:31;101720.47;;;14.98;61.28
48204;BME280;33994;50.998;5.864;2023-05-23T12:26:45;101728.22;;;15.06;60.31
48204;BME280;33994;50.998;5.864;2023-05-23T12:29:50;101714.22;;;15.04;60.52
48204;BME280;33994;50.998;5.864;2023-05-23T12:32:54;101718.50;;;15.09;60.50
48204;BME280;33994;50.998;5.864;2023-05-23T12:35:57;101708.00;;;15.08;59.80
48204;BME280;33994;50.998;5.864;2023-05-23T12:39:01;101707.97;;;15.09;59.22
48204;BME280;33994;50.998;5.864;2023-05-23T12:42:08;101703.44;;;15.16;58.91
48204;BME280;33994;50.998;5.864;2023-05-23T12:45:14;101698.94;;;15.23;59.69
48204;BME280;33994;50.998;5.864;2023-05-23T12:48:17;101706.69;;;15.30;58.92
48204;BME280;33994;50.998;5.864;2023-05-23T12:51:20;101695.97;;;15.37;58.80
48204;BME280;33994;50.998;5.864;2023-05-23T12:54:24;101700.22;;;15.44;58.49
48204;BME280;33994;50.998;5.864;2023-05-23T12:57:27;101707.97;;;15.53;58.13
48204;BME280;33994;50.998;5.864;2023-05-23T13:00:32;101705.00;;;15.68;58.26
48204;BME280;33994;50.998;5.864;2023-05-23T13:03:36;101696.16;;;15.69;57.82
48204;BME280;33994;50.998;5.864;2023-05-23T13:06:39;101708.44;;;15.70;57.38
48204;BME280;33994;50.998;5.864;2023-05-23T13:09:42;101698.94;;;15.63;56.45
48204;BME280;33994;50.998;5.864;2023-05-23T13:12:45;101702.47;;;15.62;55.71
48204;BME280;33994;50.998;5.864;2023-05-23T13:15:50;101698.94;;;15.63;55.48
48204;BME280;33994;50.998;5.864;2023-05-23T13:18:53;101705.97;;;15.64;55.08
48204;BME280;33994;50.998;5.864;2023-05-23T13:21:57;101709.56;;;15.60;54.87
48204;BME280;33994;50.998;5.864;2023-05-23T13:25:00;101710.28;;;15.67;54.83
48204;BME280;33994;50.998;5.864;2023-05-23T13:28:03;101701.38;;;15.72;54.17
48204;BME280;33994;50.998;5.864;2023-05-23T13:31:08;101703.81;;;15.83;53.57
48204;BME280;33994;50.998;5.864;2023-05-23T13:34:11;101701.09;;;15.86;53.29
48204;BME280;33994;50.998;5.864;2023-05-23T13:37:15;101695.78;;;15.88;53.24
48204;BME280;33994;50.998;5.864;2023-05-23T13:40:20;101695.63;;;15.94;52.95
48204;BME280;33994;50.998;5.864;2023-05-23T13:43:24;101711.38;;;15.98;52.90
48204;BME280;33994;50.998;5.864;2023-05-23T13:46:28;101694.75;;;15.95;52.60
48204;BME280;33994;50.998;5.864;2023-05-23T13:49:32;101689.53;;;15.92;53.06
48204;BME280;33994;50.998;5.864;2023-05-23T13:52:35;101680.56;;;15.99;53.12
48204;BME280;33994;50.998;5.864;2023-05-23T13:55:39;101702.56;;;15.98;52.82
48204;BME280;33994;50.998;5.864;2023-05-23T13:58:42;101699.09;;;15.96;52.58
48204;BME280;33994;50.998;5.864;2023-05-23T14:01:46;101691.44;;;15.87;52.78
48204;BME280;33994;50.998;5.864;2023-05-23T14:04:50;101685.44;;;15.78;52.06
48204;BME280;33994;50.998;5.864;2023-05-23T14:07:53;101696.91;;;15.77;52.51
48204;BME280;33994;50.998;5.864;2023-05-23T14:10:56;101687.22;;;15.78;52.72
48204;BME280;33994;50.998;5.864;2023-05-23T14:13:59;101693.28;;;15.81;52.43
48204;BME280;33994;50.998;5.864;2023-05-23T14:17:04;101681.88;;;15.81;51.98
48204;BME280;33994;50.998;5.864;2023-05-23T14:20:08;101683.72;;;15.77;51.77
48204;BME280;33994;50.998;5.864;2023-05-23T14:23:11;101681.91;;;15.79;52.06
48204;BME280;33994;50.998;5.864;2023-05-23T14:28:32;101686.00;;;15.93;52.10
48204;BME280;33994;50.998;5.864;2023-05-23T14:31:36;101685.84;;;15.99;52.17
48204;BME280;33994;50.998;5.864;2023-05-23T14:34:39;101683.09;;;16.03;51.73
48204;BME280;33994;50.998;5.864;2023-05-23T14:37:43;101697.19;;;16.02;52.25
48204;BME280;33994;50.998;5.864;2023-05-23T14:40:46;101686.56;;;16.05;52.01
48204;BME280;33994;50.998;5.864;2023-05-23T14:43:51;101690.91;;;16.08;51.74
48204;BME280;33994;50.998;5.864;2023-05-23T14:46:54;101678.56;;;16.10;51.80
48204;BME280;33994;50.998;5.864;2023-05-23T14:49:57;101697.22;;;16.01;51.51
48204;BME280;33994;50.998;5.864;2023-05-23T14:53:01;101680.50;;;16.02;51.65
48204;BME280;33994;50.998;5.864;2023-05-23T14:56:04;101684.81;;;16.06;51.76
48204;BME280;33994;50.998;5.864;2023-05-23T14:59:09;101684.81;;;16.06;51.47
48204;BME280;33994;50.998;5.864;2023-05-23T15:02:12;101679.56;;;16.04;51.30
48204;BME280;33994;50.998;5.864;2023-05-23T15:05:16;101687.66;;;15.97;51.05
48204;BME280;33994;50.998;5.864;2023-05-23T15:08:19;101681.75;;;15.87;51.16
48204;BME280;33994;50.998;5.864;2023-05-23T15:11:22;101702.97;;;15.81;51.40
48204;BME280;33994;50.998;5.864;2023-05-23T15:14:27;101686.47;;;15.71;51.26
48204;BME280;33994;50.998;5.864;2023-05-23T15:17:31;101682.13;;;15.69;51.12
48204;BME280;33994;50.998;5.864;2023-05-23T15:20:35;101695.31;;;15.67;51.14
48204;BME280;33994;50.998;5.864;2023-05-23T15:23:38;101689.09;;;15.71;51.18
48204;BME280;33994;50.998;5.864;2023-05-23T15:26:41;101672.34;;;15.75;50.93
48204;BME280;33994;50.998;5.864;2023-05-23T15:29:46;101685.47;;;15.77;50.49
48204;BME280;33994;50.998;5.864;2023-05-23T15:32:50;101668.03;;;15.70;50.05
48204;BME280;33994;50.998;5.864;2023-05-23T15:35:55;101670.56;;;15.76;50.23
48204;BME280;33994;50.998;5.864;2023-05-23T15:38:58;101679.28;;;15.79;49.94
48204;BME280;33994;50.998;5.864;2023-05-23T15:42:01;101668.78;;;15.76;50.31
48204;BME280;33994;50.998;5.864;2023-05-23T15:45:07;101668.72;;;15.79;50.38
48204;BME280;33994;50.998;5.864;2023-05-23T15:48:10;101659.97;;;15.77;50.15
48204;BME280;33994;50.998;5.864;2023-05-23T15:51:14;101662.53;;;15.80;50.13
48204;BME280;33994;50.998;5.864;2023-05-23T15:54:17;101665.97;;;15.84;50.21
48204;BME280;33994;50.998;5.864;2023-05-23T15:57:21;101669.41;;;15.88;49.92
48204;BME280;33994;50.998;5.864;2023-05-23T16:00:26;101671.25;;;15.84;49.55
48204;BME280;33994;50.998;5.864;2023-05-23T16:03:29;101659.84;;;15.84;49.46
48204;BME280;33994;50.998;5.864;2023-05-23T16:06:32;101688.00;;;15.81;49.69
48204;BME280;33994;50.998;5.864;2023-05-23T16:09:36;101673.16;;;15.77;49.78